createdAt,value
2017-06-10T00:01:18.733Z,12.80
2017-06-10T00:03:45.034Z,12.80
2017-06-10T00:06:11.346Z,12.70
2017-06-10T00:08:37.654Z,12.70
2017-06-10T00:11:03.942Z,12.60
2017-06-10T00:13:30.242Z,12.70
2017-06-10T00:15:56.549Z,12.70
2017-06-10T00:18:22.854Z,12.70
2017-06-10T00:20:49.146Z,12.70
2017-06-10T00:23:16.469Z,12.70
2017-06-10T00:25:42.781Z,12.70
2017-06-10T00:28:09.077Z,12.70
2017-06-10T00:30:37.117Z,12.70
2017-06-10T00:33:03.413Z,12.70
2017-06-10T00:35:29.709Z,12.70
2017-06-10T00:37:56.025Z,12.70
2017-06-10T00:40:23.092Z,12.70
2017-06-10T00:42:49.390Z,12.70
2017-06-10T00:45:16.441Z,12.70
2017-06-10T00:47:43.485Z,12.60
2017-06-10T00:50:10.529Z,12.70
2017-06-10T00:52:36.854Z,12.60
2017-06-10T00:55:03.150Z,12.70
2017-06-10T00:57:29.452Z,12.70
2017-06-10T00:59:55.758Z,12.70
2017-06-10T01:02:22.069Z,12.70
2017-06-10T01:04:48.407Z,12.80
2017-06-10T01:07:15.737Z,12.80
2017-06-10T01:09:42.050Z,12.80
2017-06-10T01:12:08.342Z,12.80
2017-06-10T01:14:34.649Z,12.80
2017-06-10T01:17:00.966Z,12.80
2017-06-10T01:19:27.297Z,12.70
2017-06-10T01:21:53.613Z,12.70
2017-06-10T01:24:19.913Z,12.70
2017-06-10T01:26:46.213Z,12.70
2017-06-10T01:29:13.280Z,12.80
2017-06-10T01:31:39.625Z,12.70
2017-06-10T01:34:05.929Z,12.70
2017-06-10T01:36:32.977Z,12.70
2017-06-10T01:38:59.277Z,12.70
2017-06-10T01:41:25.613Z,12.80
2017-06-10T01:43:51.949Z,12.80
2017-06-10T01:46:19.009Z,12.80
2017-06-10T01:48:46.057Z,12.80
2017-06-10T01:51:12.381Z,12.80
2017-06-10T01:53:38.694Z,12.80
2017-06-10T01:56:05.014Z,12.80
2017-06-10T01:58:31.317Z,12.80
2017-06-10T02:00:57.604Z,12.90
2017-06-10T02:03:23.909Z,12.90
2017-06-10T02:05:50.227Z,12.90
2017-06-10T02:08:16.558Z,12.90
2017-06-10T02:10:42.873Z,13.00
2017-06-10T02:13:09.170Z,12.90
2017-06-10T02:15:35.457Z,12.90
2017-06-10T02:18:02.803Z,12.90
2017-06-10T02:20:29.106Z,12.90
2017-06-10T02:22:56.429Z,12.90
2017-06-10T02:25:22.735Z,12.90
2017-06-10T02:27:49.046Z,12.80
2017-06-10T02:30:15.349Z,12.80
2017-06-10T02:32:41.641Z,12.90
2017-06-10T02:35:07.954Z,12.80
2017-06-10T02:37:34.249Z,12.80
2017-06-10T02:40:00.549Z,12.80
2017-06-10T02:42:26.859Z,12.80
2017-06-10T02:44:53.167Z,12.80
2017-06-10T02:47:20.310Z,12.80
2017-06-10T02:49:46.609Z,12.80
2017-06-10T02:52:12.924Z,12.80
2017-06-10T02:54:39.243Z,12.80
2017-06-10T02:57:05.541Z,12.80
2017-06-10T02:59:31.842Z,12.80
2017-06-10T03:01:58.250Z,12.80
2017-06-10T03:04:24.578Z,12.80
2017-06-10T03:06:50.875Z,12.80
2017-06-10T03:09:17.185Z,12.80
2017-06-10T03:11:43.498Z,12.80
2017-06-10T03:14:09.792Z,12.70
2017-06-10T03:16:48.373Z,12.70
2017-06-10T03:19:14.703Z,12.70
2017-06-10T03:21:40.998Z,12.70
2017-06-10T03:24:07.305Z,12.70
2017-06-10T03:26:33.615Z,12.60
2017-06-10T03:28:59.909Z,12.70
2017-06-10T03:31:26.941Z,12.60
2017-06-10T03:33:53.238Z,12.60
2017-06-10T03:36:19.530Z,12.50
2017-06-10T03:38:46.573Z,12.60
2017-06-10T03:41:12.881Z,12.50
2017-06-10T03:43:39.173Z,12.50
2017-06-10T03:46:05.493Z,12.50
2017-06-10T03:48:31.788Z,12.50
2017-06-10T03:50:58.099Z,12.50
2017-06-10T03:53:24.397Z,12.40
2017-06-10T03:55:50.701Z,12.50
2017-06-10T03:58:16.989Z,12.40
2017-06-10T04:00:43.301Z,12.40
2017-06-10T04:03:09.603Z,12.40
2017-06-10T04:05:35.898Z,12.30
2017-06-10T04:08:02.198Z,12.30
2017-06-10T04:10:28.502Z,12.30
2017-06-10T04:12:54.805Z,12.30
2017-06-10T04:15:21.102Z,12.40
2017-06-10T04:17:48.170Z,12.50
2017-06-10T04:20:14.505Z,12.50
2017-06-10T04:22:40.805Z,12.60
2017-06-10T04:25:07.116Z,12.60
2017-06-10T04:27:33.419Z,12.60
2017-06-10T04:29:59.721Z,12.70
2017-06-10T04:32:26.041Z,12.70
2017-06-10T04:34:52.361Z,12.70
2017-06-10T04:37:18.669Z,12.70
2017-06-10T04:39:44.970Z,12.80
2017-06-10T04:42:11.267Z,12.80
2017-06-10T04:44:37.570Z,12.90
2017-06-10T04:47:04.605Z,13.00
2017-06-10T04:49:31.934Z,13.00
2017-06-10T04:51:58.238Z,13.10
2017-06-10T04:54:24.540Z,13.10
2017-06-10T04:56:50.853Z,13.10
2017-06-10T04:59:18.165Z,13.20
2017-06-10T05:01:45.503Z,13.30
2017-06-10T05:04:11.806Z,13.40
2017-06-10T05:06:39.107Z,13.40
2017-06-10T05:09:05.409Z,13.50
2017-06-10T05:11:31.729Z,13.60
2017-06-10T05:13:59.025Z,13.70
2017-06-10T05:16:25.325Z,13.90
2017-06-10T05:18:51.625Z,13.90
2017-06-10T05:21:17.933Z,13.80
2017-06-10T05:23:44.227Z,13.70
2017-06-10T05:26:10.521Z,13.70
2017-06-10T05:28:38.565Z,13.80
2017-06-10T05:31:04.860Z,13.80
2017-06-10T05:33:31.169Z,13.90
2017-06-10T05:35:57.470Z,13.80
2017-06-10T05:38:24.521Z,14.00
2017-06-10T05:40:50.820Z,13.90
2017-06-10T05:43:17.118Z,14.00
2017-06-10T05:45:43.417Z,14.10
2017-06-10T05:48:09.747Z,14.20
2017-06-10T05:50:36.797Z,14.40
2017-06-10T05:53:04.878Z,14.50
2017-06-10T05:55:32.228Z,14.40
2017-06-10T05:57:58.640Z,14.40
2017-06-10T06:00:25.725Z,14.70
2017-06-10T06:02:52.038Z,14.70
2017-06-10T06:05:18.353Z,15.20
2017-06-10T06:07:45.517Z,15.70
2017-06-10T06:10:11.881Z,15.70
2017-06-10T06:12:38.183Z,15.70
2017-06-10T06:15:04.538Z,15.50
2017-06-10T06:17:30.865Z,15.60
2017-06-10T06:19:57.181Z,15.50
2017-06-10T06:22:23.486Z,15.40
2017-06-10T06:24:50.536Z,15.30
2017-06-10T06:27:18.642Z,15.50
2017-06-10T06:29:45.995Z,15.40
2017-06-10T06:32:12.355Z,15.90
2017-06-10T06:34:38.662Z,15.70
2017-06-10T06:37:04.958Z,15.60
2017-06-10T06:39:31.246Z,15.70
2017-06-10T06:41:57.550Z,15.70
2017-06-10T06:44:23.857Z,15.60
2017-06-10T06:46:50.175Z,15.70
2017-06-10T06:49:16.475Z,15.90
2017-06-10T06:51:42.790Z,16.20
2017-06-10T06:54:10.077Z,16.40
2017-06-10T06:56:37.121Z,15.70
2017-06-10T06:59:03.425Z,15.70
2017-06-10T07:01:29.726Z,15.50
2017-06-10T07:03:56.025Z,15.40
2017-06-10T07:06:22.418Z,15.40
2017-06-10T07:08:48.813Z,15.50
2017-06-10T07:11:15.132Z,15.80
2017-06-10T07:13:41.474Z,16.50
2017-06-10T07:16:07.767Z,17.10
2017-06-10T07:18:34.813Z,18.00
2017-06-10T07:21:01.849Z,18.00
2017-06-10T07:23:28.877Z,18.00
2017-06-10T07:25:55.174Z,18.00
2017-06-10T07:28:21.475Z,18.20
2017-06-10T07:30:47.783Z,18.30
2017-06-10T07:33:14.076Z,18.20
2017-06-10T07:35:40.374Z,18.20
2017-06-10T07:38:06.669Z,18.10
2017-06-10T07:40:33.718Z,17.70
2017-06-10T07:43:00.014Z,17.60
2017-06-10T07:45:26.319Z,18.10
2017-06-10T07:47:52.964Z,18.10
2017-06-10T07:50:19.253Z,18.10
2017-06-10T07:52:46.285Z,18.20
2017-06-10T07:55:12.589Z,18.10
2017-06-10T07:57:38.897Z,18.50
2017-06-10T08:00:05.219Z,19.00
2017-06-10T08:02:31.513Z,18.90
2017-06-10T08:04:58.555Z,19.20
2017-06-10T08:07:25.589Z,19.40
2017-06-10T08:09:51.894Z,19.40
2017-06-10T08:12:19.201Z,20.00
2017-06-10T08:14:45.506Z,19.80
2017-06-10T08:17:12.813Z,19.60
2017-06-10T08:19:39.102Z,19.30
2017-06-10T08:22:06.137Z,18.70
2017-06-10T08:24:32.438Z,18.70
2017-06-10T08:26:58.753Z,18.30
2017-06-10T08:29:25.065Z,18.00
2017-06-10T08:31:51.377Z,18.30
2017-06-10T08:34:18.417Z,18.90
2017-06-10T08:36:45.449Z,19.50
2017-06-10T08:39:12.753Z,19.40
2017-06-10T08:41:39.063Z,19.60
2017-06-10T08:44:05.362Z,20.60
2017-06-10T08:46:31.659Z,20.90
2017-06-10T08:48:57.975Z,21.20
2017-06-10T08:51:24.277Z,20.50
2017-06-10T08:53:50.565Z,20.00
2017-06-10T08:56:16.868Z,19.40
2017-06-10T08:58:43.173Z,20.10
2017-06-10T09:01:09.485Z,20.20
2017-06-10T09:03:35.802Z,20.40
2017-06-10T09:06:02.853Z,21.60
2017-06-10T09:08:29.902Z,21.40
2017-06-10T09:10:56.949Z,21.30
2017-06-10T09:13:24.240Z,21.30
2017-06-10T09:15:50.540Z,21.90
2017-06-10T09:18:16.831Z,22.30
2017-06-10T09:20:43.136Z,21.80
2017-06-10T09:23:09.433Z,21.40
2017-06-10T09:25:35.745Z,21.00
2017-06-10T09:28:02.788Z,20.90
2017-06-10T09:30:29.825Z,21.00
2017-06-10T09:32:56.150Z,20.90
2017-06-10T09:35:22.450Z,20.70
2017-06-10T09:37:48.743Z,21.20
2017-06-10T09:40:15.043Z,22.00
2017-06-10T09:42:41.342Z,22.70
2017-06-10T09:45:07.661Z,21.00
2017-06-10T09:47:33.961Z,21.10
2017-06-10T09:50:00.263Z,21.40
2017-06-10T09:52:26.565Z,21.70
2017-06-10T09:54:52.869Z,20.50
2017-06-10T09:57:19.181Z,20.20
2017-06-10T09:59:45.482Z,20.50
2017-06-10T10:02:11.814Z,20.60
2017-06-10T10:04:39.157Z,20.70
2017-06-10T10:07:05.463Z,21.20
2017-06-10T10:09:31.761Z,21.50
2017-06-10T10:11:58.074Z,21.60
2017-06-10T10:14:25.135Z,21.80
2017-06-10T10:16:51.434Z,21.80
2017-06-10T10:19:18.480Z,21.30
2017-06-10T10:21:44.815Z,21.30
2017-06-10T10:24:11.869Z,21.70
2017-06-10T10:26:38.937Z,21.70
2017-06-10T10:29:06.265Z,21.70
2017-06-10T10:31:32.581Z,21.60
2017-06-10T10:33:58.886Z,21.50
2017-06-10T10:36:25.195Z,21.10
2017-06-10T10:38:51.496Z,20.80
2017-06-10T10:41:17.833Z,21.50
2017-06-10T10:43:44.133Z,21.50
2017-06-10T10:46:10.449Z,22.20
2017-06-10T10:48:37.737Z,22.80
2017-06-10T10:51:04.058Z,23.70
2017-06-10T10:53:31.101Z,23.00
2017-06-10T10:55:58.208Z,22.10
2017-06-10T10:58:24.515Z,22.00
2017-06-10T11:00:50.846Z,21.70
2017-06-10T11:03:17.170Z,21.60
2017-06-10T11:05:43.461Z,22.20
2017-06-10T11:08:09.777Z,22.70
2017-06-10T11:10:36.093Z,22.60
2017-06-10T11:13:02.403Z,22.70
2017-06-10T11:15:28.738Z,22.90
2017-06-10T11:17:55.030Z,23.00
2017-06-10T11:20:21.330Z,22.60
2017-06-10T11:22:47.634Z,22.00
2017-06-10T11:25:13.947Z,22.40
2017-06-10T11:27:40.241Z,22.20
2017-06-10T11:30:07.287Z,23.30
2017-06-10T11:32:35.338Z,22.90
2017-06-10T11:35:01.631Z,22.90
2017-06-10T11:37:27.941Z,22.10
2017-06-10T11:39:54.241Z,22.40
2017-06-10T11:42:21.305Z,23.00
2017-06-10T11:44:47.617Z,22.90
2017-06-10T11:47:14.662Z,23.10
2017-06-10T11:49:41.713Z,23.30
2017-06-10T11:52:08.021Z,23.20
2017-06-10T11:54:34.319Z,22.80
2017-06-10T11:57:00.644Z,22.30
2017-06-10T11:59:26.944Z,22.70
2017-06-10T12:01:53.578Z,23.10
2017-06-10T12:04:19.957Z,23.20
2017-06-10T12:06:46.257Z,23.70
2017-06-10T12:09:12.569Z,23.40
2017-06-10T12:11:38.862Z,23.30
2017-06-10T12:14:05.162Z,23.80
2017-06-10T12:16:31.497Z,24.00
2017-06-10T12:18:57.873Z,23.30
2017-06-10T12:21:24.921Z,24.10
2017-06-10T12:23:51.969Z,24.70
2017-06-10T12:26:19.013Z,25.10
2017-06-10T12:28:46.057Z,25.60
2017-06-10T12:31:13.093Z,25.90
2017-06-10T12:33:39.402Z,25.80
2017-06-10T12:36:05.710Z,26.60
2017-06-10T12:38:32.013Z,27.40
2017-06-10T12:40:58.310Z,27.70
2017-06-10T12:43:24.605Z,27.80
2017-06-10T12:45:50.990Z,25.90
2017-06-10T12:48:17.285Z,26.80
2017-06-10T12:50:43.597Z,28.40
2017-06-10T12:53:09.905Z,30.10
2017-06-10T12:55:36.210Z,28.50
2017-06-10T12:58:02.514Z,28.80
2017-06-10T13:00:28.813Z,30.20
2017-06-10T13:02:55.125Z,31.00
2017-06-10T13:05:21.422Z,30.90
2017-06-10T13:07:48.458Z,30.80
2017-06-10T13:10:14.750Z,30.80
2017-06-10T13:12:41.056Z,30.80
2017-06-10T13:15:07.350Z,31.40
2017-06-10T13:17:33.654Z,31.40
2017-06-10T13:19:59.998Z,32.10
2017-06-10T13:22:26.293Z,32.40
2017-06-10T13:24:52.589Z,33.50
2017-06-10T13:27:18.905Z,32.40
2017-06-10T13:29:46.953Z,33.50
2017-06-10T13:32:13.274Z,33.50
2017-06-10T13:34:39.566Z,33.40
2017-06-10T13:37:05.880Z,33.50
2017-06-10T13:39:32.182Z,33.00
2017-06-10T13:41:58.490Z,32.90
2017-06-10T13:44:24.800Z,33.50
2017-06-10T13:46:51.102Z,33.40
2017-06-10T13:49:18.382Z,34.30
2017-06-10T13:51:45.677Z,34.30
2017-06-10T13:54:11.994Z,34.70
2017-06-10T13:56:39.284Z,35.00
2017-06-10T13:59:05.586Z,33.00
2017-06-10T14:01:31.898Z,33.50
2017-06-10T14:03:58.233Z,30.60
2017-06-10T14:06:24.541Z,31.90
2017-06-10T14:08:50.850Z,33.50
2017-06-10T14:11:18.166Z,33.40
2017-06-10T14:13:45.463Z,30.40
2017-06-10T14:16:11.770Z,31.90
2017-06-10T14:18:38.116Z,33.90
2017-06-10T14:21:04.422Z,35.60
2017-06-10T14:23:31.474Z,32.80
2017-06-10T14:25:58.513Z,32.20
2017-06-10T14:28:25.559Z,33.40
2017-06-10T14:30:51.862Z,33.40
2017-06-10T14:33:18.166Z,34.60
2017-06-10T14:35:44.471Z,36.00
2017-06-10T14:38:10.778Z,35.30
2017-06-10T14:40:37.833Z,36.10
2017-06-10T14:43:04.129Z,36.00
2017-06-10T14:45:30.425Z,36.00
2017-06-10T14:47:56.727Z,36.20
2017-06-10T14:50:23.026Z,36.90
2017-06-10T14:52:49.348Z,36.60
2017-06-10T14:55:15.650Z,36.20
2017-06-10T14:57:41.946Z,34.60
2017-06-10T15:00:08.249Z,34.60
2017-06-10T15:02:35.305Z,37.10
2017-06-10T15:05:02.380Z,36.90
2017-06-10T15:07:28.695Z,36.90
2017-06-10T15:09:54.994Z,36.20
2017-06-10T15:12:21.305Z,36.40
2017-06-10T15:14:47.597Z,36.80
2017-06-10T15:17:13.891Z,35.60
2017-06-10T15:19:40.949Z,35.10
2017-06-10T15:22:07.997Z,36.30
2017-06-10T15:24:34.298Z,36.20
2017-06-10T15:27:00.603Z,36.70
2017-06-10T15:29:26.896Z,35.30
2017-06-10T15:31:53.190Z,34.50
2017-06-10T15:34:19.506Z,34.70
2017-06-10T15:36:46.818Z,35.10
2017-06-10T15:39:14.101Z,35.50
2017-06-10T15:41:40.410Z,34.60
2017-06-10T15:44:06.713Z,35.50
2017-06-10T15:46:33.765Z,34.50
2017-06-10T15:49:00.089Z,34.50
2017-06-10T15:51:26.393Z,36.00
2017-06-10T15:53:52.693Z,36.30
2017-06-10T15:56:18.994Z,36.10
2017-06-10T15:58:45.305Z,37.10
2017-06-10T16:01:12.343Z,31.90
2017-06-10T16:03:38.658Z,31.80
2017-06-10T16:06:04.972Z,32.20
2017-06-10T16:08:31.287Z,34.10
2017-06-10T16:10:57.590Z,35.90
2017-06-10T16:13:23.885Z,36.50
2017-06-10T16:15:50.181Z,36.50
2017-06-10T16:18:17.247Z,36.10
2017-06-10T16:20:43.550Z,37.10
2017-06-10T16:23:09.857Z,37.50
2017-06-10T16:25:36.162Z,37.70
2017-06-10T16:28:04.212Z,33.70
2017-06-10T16:30:30.514Z,33.60
2017-06-10T16:32:57.821Z,35.00
2017-06-10T16:35:24.129Z,36.10
2017-06-10T16:37:50.445Z,37.60
2017-06-10T16:40:16.746Z,37.50
2017-06-10T16:42:43.054Z,36.70
2017-06-10T16:45:09.361Z,37.10
2017-06-10T16:47:36.396Z,34.10
2017-06-10T16:50:02.698Z,34.00
2017-06-10T16:52:29.751Z,33.20
2017-06-10T16:54:56.062Z,33.10
2017-06-10T16:57:22.361Z,34.10
2017-06-10T16:59:48.675Z,33.90
2017-06-10T17:02:15.746Z,33.10
2017-06-10T17:04:42.062Z,33.10
2017-06-10T17:07:08.358Z,32.00
2017-06-10T17:09:34.653Z,30.60
2017-06-10T17:12:00.953Z,29.10
2017-06-10T17:14:27.273Z,28.30
2017-06-10T17:16:54.325Z,26.10
2017-06-10T17:19:20.637Z,25.90
2017-06-10T17:21:47.669Z,24.80
2017-06-10T17:24:13.966Z,24.70
2017-06-10T17:26:40.281Z,24.40
2017-06-10T17:29:06.590Z,24.00
2017-06-10T17:31:32.888Z,23.60
2017-06-10T17:33:59.186Z,23.10
2017-06-10T17:36:25.489Z,23.00
2017-06-10T17:38:51.797Z,23.20
2017-06-10T17:41:18.834Z,22.50
2017-06-10T17:43:45.881Z,22.30
2017-06-10T17:46:12.913Z,22.10
2017-06-10T17:48:39.205Z,22.10
2017-06-10T17:51:05.511Z,21.80
2017-06-10T17:53:32.823Z,21.50
2017-06-10T17:55:59.125Z,21.20
2017-06-10T17:58:25.425Z,21.00
2017-06-10T18:00:51.709Z,20.90
2017-06-10T18:03:19.213Z,20.70
2017-06-10T18:05:45.521Z,20.60
2017-06-10T18:08:12.557Z,20.20
2017-06-10T18:10:38.858Z,20.20
2017-06-10T18:13:05.163Z,20.00
2017-06-10T18:15:31.453Z,19.90
2017-06-10T18:17:57.761Z,19.70
2017-06-10T18:20:24.086Z,19.60
2017-06-10T18:22:50.413Z,19.50
2017-06-10T18:25:16.741Z,19.30
2017-06-10T18:27:43.029Z,19.20
2017-06-10T18:30:09.353Z,18.90
2017-06-10T18:32:35.659Z,18.70
2017-06-10T18:35:01.959Z,18.60
2017-06-10T18:37:28.265Z,18.50
2017-06-10T18:39:54.591Z,18.40
2017-06-10T18:42:20.929Z,18.30
2017-06-10T18:44:47.229Z,18.20
2017-06-10T18:47:13.536Z,18.20
2017-06-10T18:49:39.845Z,18.10
2017-06-10T18:52:06.154Z,18.00
2017-06-10T18:54:32.457Z,17.90
2017-06-10T18:56:58.765Z,17.80
2017-06-10T18:59:25.833Z,17.60
2017-06-10T19:01:52.162Z,17.60
2017-06-10T19:04:18.488Z,17.50
2017-06-10T19:06:44.786Z,17.40
2017-06-10T19:09:11.097Z,17.20
2017-06-10T19:11:37.410Z,17.00
2017-06-10T19:14:03.742Z,16.70
2017-06-10T19:16:30.062Z,16.50
2017-06-10T19:18:56.366Z,16.30
2017-06-10T19:21:23.654Z,16.10
2017-06-10T19:23:49.970Z,16.00
2017-06-10T19:26:16.278Z,16.00
2017-06-10T19:28:42.581Z,16.00
2017-06-10T19:31:09.626Z,15.90
2017-06-10T19:33:36.678Z,15.90
2017-06-10T19:36:02.985Z,15.90
2017-06-10T19:38:29.298Z,15.70
2017-06-10T19:40:55.589Z,15.50
2017-06-10T19:43:21.885Z,15.40
2017-06-10T19:45:48.189Z,15.30
2017-06-10T19:48:14.522Z,15.10
2017-06-10T19:50:40.846Z,15.00
2017-06-10T19:53:07.179Z,14.80
2017-06-10T19:55:33.533Z,14.80
2017-06-10T19:57:59.829Z,14.60
2017-06-10T20:00:26.133Z,14.60
2017-06-10T20:02:52.480Z,14.40
2017-06-10T20:05:18.793Z,14.40
2017-06-10T20:07:45.094Z,14.30
2017-06-10T20:10:13.185Z,14.20
2017-06-10T20:12:39.486Z,14.10
2017-06-10T20:15:05.778Z,14.10
2017-06-10T20:17:32.077Z,14.00
2017-06-10T20:19:58.377Z,13.90
2017-06-10T20:22:24.678Z,13.90
2017-06-10T20:24:50.985Z,13.90
2017-06-10T20:27:17.309Z,13.80
2017-06-10T20:29:43.607Z,13.80
2017-06-10T20:32:10.666Z,13.70
2017-06-10T20:34:36.977Z,13.60
2017-06-10T20:37:03.307Z,13.60
2017-06-10T20:39:29.614Z,13.50
2017-06-10T20:41:55.909Z,13.50
2017-06-10T20:44:22.213Z,13.40
2017-06-10T20:46:48.535Z,13.30
2017-06-10T20:49:15.605Z,13.30
2017-06-10T20:51:41.917Z,13.20
2017-06-10T20:54:08.226Z,13.20
2017-06-10T20:56:34.537Z,13.20
2017-06-10T20:59:00.841Z,13.20
2017-06-10T21:01:27.149Z,13.10
2017-06-10T21:03:53.462Z,13.00
2017-06-10T21:06:19.774Z,13.00
2017-06-10T21:08:46.085Z,13.00
2017-06-10T21:11:12.389Z,13.00
2017-06-10T21:13:39.697Z,12.90
2017-06-10T21:16:06.741Z,12.80
2017-06-10T21:18:33.047Z,12.80
2017-06-10T21:20:59.361Z,12.90
2017-06-10T21:23:25.673Z,12.80
2017-06-10T21:25:51.979Z,12.80
2017-06-10T21:28:18.277Z,12.80
2017-06-10T21:30:45.314Z,12.80
2017-06-10T21:33:11.615Z,12.80
2017-06-10T21:35:37.923Z,12.80
2017-06-10T21:38:04.232Z,12.80
2017-06-10T21:40:30.549Z,12.80
2017-06-10T21:42:57.842Z,12.70
2017-06-10T21:45:24.147Z,12.60
2017-06-10T21:47:51.454Z,12.60
2017-06-10T21:50:18.997Z,12.60
2017-06-10T21:52:45.298Z,12.70
2017-06-10T21:55:11.615Z,12.60
2017-06-10T21:57:37.931Z,12.60
2017-06-10T22:00:04.236Z,12.60
2017-06-10T22:02:30.546Z,12.50
2017-06-10T22:04:56.842Z,12.50
2017-06-10T22:07:23.385Z,12.50
2017-06-10T22:09:49.702Z,12.40
2017-06-10T22:12:15.996Z,12.40
2017-06-10T22:14:43.321Z,12.30
2017-06-10T22:17:09.618Z,12.30
2017-06-10T22:19:35.926Z,12.30
2017-06-10T22:22:02.237Z,12.30
2017-06-10T22:24:28.541Z,12.20
2017-06-10T22:26:54.858Z,12.20
2017-06-10T22:29:21.166Z,12.20
2017-06-10T22:31:47.478Z,12.20
2017-06-10T22:34:13.813Z,12.10
2017-06-10T22:36:40.855Z,12.10
2017-06-10T22:39:07.153Z,12.10
2017-06-10T22:41:33.453Z,12.00
2017-06-10T22:43:59.767Z,12.00
2017-06-10T22:46:27.053Z,12.00
2017-06-10T22:48:53.353Z,12.00
2017-06-10T22:51:19.665Z,12.00
2017-06-10T22:53:45.979Z,12.00
2017-06-10T22:56:12.269Z,11.90
2017-06-10T22:58:38.578Z,11.90
2017-06-10T23:01:04.874Z,11.90
2017-06-10T23:03:31.921Z,12.10
2017-06-10T23:05:58.222Z,12.00
2017-06-10T23:08:24.514Z,12.00
2017-06-10T23:10:50.818Z,12.00
2017-06-10T23:13:17.139Z,12.00
2017-06-10T23:15:44.179Z,12.00
2017-06-10T23:18:11.490Z,12.00
2017-06-10T23:20:38.831Z,12.00
2017-06-10T23:23:06.161Z,12.00
2017-06-10T23:25:32.481Z,11.90
2017-06-10T23:27:58.782Z,11.90
2017-06-10T23:30:25.085Z,11.90
2017-06-10T23:32:52.405Z,12.00
2017-06-10T23:35:19.694Z,12.00
2017-06-10T23:37:46.004Z,11.90
2017-06-10T23:40:12.337Z,11.80
2017-06-10T23:42:38.647Z,11.80
2017-06-10T23:45:04.940Z,11.80
2017-06-10T23:47:32.821Z,11.80
2017-06-10T23:49:59.122Z,11.80
2017-06-10T23:52:25.432Z,11.80
2017-06-10T23:54:51.738Z,11.80
2017-06-10T23:57:18.085Z,11.70
2017-06-10T23:59:44.378Z,11.60
